Time;durP1;ratioP1;P1;durP2;ratioP2;P2;SDS_P1;SDS_P2;PMS_P1;PMS_P2;Temp;Humidity;BMP_temperature;BMP_pressure;BME280_temperature;BME280_humidity;BME280_pressure;Samples;Min_cycle;Max_cycle;Signal;HPM_P1;HPM_P2
2022/07/18 00:02:25;;;;;;;3.78;1.08;;;;;;;;;;4988463;28;20070;-55
2022/07/18 00:04:50;;;;;;;1.23;0.80;;;;;;;;;;4982898;28;20043;-57
2022/07/18 00:07:15;;;;;;;4.55;1.20;;;;;;;;;;4986306;28;20034;-53
2022/07/18 00:09:42;;;;;;;1.40;0.90;;;;;;;;;;4984522;28;20038;-57
2022/07/18 00:12:08;;;;;;;4.63;1.00;;;;;;;;;;4987719;28;20046;-54
2022/07/18 00:14:35;;;;;;;2.03;0.80;;;;;;;;;;4988054;28;20485;-56
2022/07/18 00:17:01;;;;;;;2.95;1.00;;;;;;;;;;4983983;28;20042;-55
2022/07/18 00:19:27;;;;;;;2.38;1.00;;;;;;;;;;4985507;28;20452;-56
2022/07/18 00:21:52;;;;;;;5.35;1.10;;;;;;;;;;4984835;28;20034;-55
2022/07/18 00:24:18;;;;;;;2.00;0.82;;;;;;;;;;4989079;28;20134;-56
2022/07/18 00:26:43;;;;;;;1.65;0.82;;;;;;;;;;4985323;28;20571;-57
2022/07/18 00:29:08;;;;;;;3.35;1.00;;;;;;;;;;4981930;28;20061;-54
2022/07/18 00:31:34;;;;;;;3.80;0.90;;;;;;;;;;4987112;28;20054;-53
2022/07/18 00:34:00;;;;;;;2.72;0.90;;;;;;;;;;4986050;28;20093;-57
2022/07/18 00:36:27;;;;;;;1.92;0.90;;;;;;;;;;4986191;28;20042;-58
2022/07/18 00:38:52;;;;;;;2.60;1.00;;;;;;;;;;4987233;28;20057;-54
2022/07/18 00:41:18;;;;;;;3.45;1.20;;;;;;;;;;4983154;28;20054;-55
2022/07/18 00:43:43;;;;;;;1.80;1.00;;;;;;;;;;4989237;28;20133;-55
2022/07/18 00:46:11;;;;;;;2.35;0.93;;;;;;;;;;4990215;28;20042;-55
2022/07/18 00:48:40;;;;;;;1.73;0.80;;;;;;;;;;4987005;28;20053;-53
2022/07/18 00:51:05;;;;;;;1.73;0.95;;;;;;;;;;4984984;28;20058;-55
2022/07/18 00:53:31;;;;;;;2.80;0.80;;;;;;;;;;4989195;28;20050;-52
2022/07/18 00:55:57;;;;;;;5.03;0.95;;;;;;;;;;4987632;28;20050;-54
2022/07/18 00:58:22;;;;;;;4.68;0.98;;;;;;;;;;4980072;28;20589;-51
2022/07/18 01:03:33;;;;;;;1.58;0.90;;;;;;;;;;4986282;28;20076;-60
2022/07/18 01:05:58;;;;;;;1.30;0.80;;;;;;;;;;4983832;28;20070;-59
2022/07/18 01:08:24;;;;;;;3.50;1.08;;;;;;;;;;4983760;28;20042;-60
2022/07/18 01:10:51;;;;;;;1.95;0.90;;;;;;;;;;4988462;28;20035;-60
2022/07/18 01:13:17;;;;;;;2.70;1.10;;;;;;;;;;4984655;28;20121;-58
2022/07/18 01:15:42;;;;;;;1.35;0.90;;;;;;;;;;4988941;28;20054;-60
2022/07/18 01:18:08;;;;;;;2.35;0.80;;;;;;;;;;4987098;28;20061;-60
2022/07/18 01:20:33;;;;;;;1.10;0.85;;;;;;;;;;4983660;28;20081;-61
2022/07/18 01:22:59;;;;;;;2.70;1.10;;;;;;;;;;4983658;28;20057;-61
2022/07/18 01:25:25;;;;;;;4.50;1.30;;;;;;;;;;4983853;28;20632;-59
2022/07/18 01:27:51;;;;;;;3.97;1.98;;;;;;;;;;4985816;28;20122;-61
2022/07/18 01:30:17;;;;;;;6.32;2.80;;;;;;;;;;4984178;28;20125;-62
2022/07/18 01:32:43;;;;;;;6.45;2.67;;;;;;;;;;4983945;28;20061;-59
2022/07/18 01:35:08;;;;;;;8.27;3.28;;;;;;;;;;4983197;28;20512;-59
2022/07/18 01:37:34;;;;;;;9.15;3.35;;;;;;;;;;4982438;28;20491;-59
2022/07/18 01:39:59;;;;;;;8.52;3.53;;;;;;;;;;4982764;28;20061;-60
2022/07/18 01:42:24;;;;;;;9.40;3.22;;;;;;;;;;4985423;28;20057;-59
2022/07/18 01:44:50;;;;;;;6.70;3.15;;;;;;;;;;4983992;28;20484;-59
2022/07/18 01:47:16;;;;;;;6.22;3.17;;;;;;;;;;4984562;28;20065;-60
2022/07/18 01:49:42;;;;;;;7.20;2.70;;;;;;;;;;4982894;28;20197;-60
2022/07/18 01:52:08;;;;;;;5.93;2.40;;;;;;;;;;4979513;28;20038;-60
2022/07/18 01:54:35;;;;;;;6.60;2.65;;;;;;;;;;4980009;28;20031;-59
2022/07/18 01:57:02;;;;;;;17.42;2.70;;;;;;;;;;4986675;28;20050;-59
2022/07/18 01:59:28;;;;;;;5.68;2.20;;;;;;;;;;4987423;28;20162;-61
2022/07/18 02:01:53;;;;;;;6.03;1.70;;;;;;;;;;4982560;28;20132;-61
2022/07/18 02:04:19;;;;;;;3.45;1.75;;;;;;;;;;4983569;28;20119;-61
2022/07/18 02:06:45;;;;;;;6.25;1.80;;;;;;;;;;4986747;28;20046;-61
2022/07/18 02:09:10;;;;;;;4.03;1.60;;;;;;;;;;4983065;28;20057;-61
2022/07/18 02:11:36;;;;;;;6.10;1.75;;;;;;;;;;4983832;28;20551;-62
2022/07/18 02:14:04;;;;;;;3.25;1.52;;;;;;;;;;4985322;28;20058;-61
2022/07/18 02:16:29;;;;;;;3.60;1.33;;;;;;;;;;4985908;28;20129;-61
2022/07/18 02:18:55;;;;;;;3.88;1.20;;;;;;;;;;4986117;28;20500;-61
2022/07/18 02:21:21;;;;;;;3.85;1.55;;;;;;;;;;4985648;28;20051;-61
2022/07/18 02:23:46;;;;;;;4.45;1.30;;;;;;;;;;4981474;28;20089;-61
2022/07/18 02:26:12;;;;;;;1.67;0.80;;;;;;;;;;4984206;28;20054;-60
2022/07/18 02:28:38;;;;;;;2.40;1.17;;;;;;;;;;4984938;28;20046;-60
2022/07/18 02:31:04;;;;;;;3.25;1.38;;;;;;;;;;4982689;28;20124;-61
2022/07/18 02:33:30;;;;;;;1.45;0.80;;;;;;;;;;4982380;28;20034;-62
2022/07/18 02:35:55;;;;;;;2.17;1.00;;;;;;;;;;4985015;28;20392;-61
2022/07/18 02:38:21;;;;;;;2.35;0.93;;;;;;;;;;4982159;28;20648;-61
2022/07/18 02:40:46;;;;;;;1.45;1.00;;;;;;;;;;4985152;28;20046;-61
2022/07/18 02:43:12;;;;;;;1.85;0.85;;;;;;;;;;4985108;28;20054;-61
2022/07/18 02:45:37;;;;;;;1.77;0.98;;;;;;;;;;4987130;28;20054;-61
2022/07/18 02:48:03;;;;;;;4.90;1.02;;;;;;;;;;4987185;28;20524;-60
2022/07/18 02:50:28;;;;;;;1.58;1.08;;;;;;;;;;4985802;28;20065;-60
2022/07/18 02:52:56;;;;;;;1.17;0.70;;;;;;;;;;4986960;28;20048;-60
2022/07/18 02:55:22;;;;;;;2.22;1.02;;;;;;;;;;4986189;28;20047;-61
2022/07/18 02:57:48;;;;;;;1.27;0.95;;;;;;;;;;4986344;28;20547;-60
2022/07/18 03:00:14;;;;;;;2.10;0.80;;;;;;;;;;4985158;28;20050;-61
2022/07/18 03:02:41;;;;;;;2.25;0.95;;;;;;;;;;4979316;28;20046;-61
2022/07/18 03:05:07;;;;;;;1.35;0.82;;;;;;;;;;4984388;28;20062;-60
2022/07/18 03:07:33;;;;;;;1.52;0.90;;;;;;;;;;4984866;28;20050;-59
2022/07/18 03:09:58;;;;;;;2.10;0.95;;;;;;;;;;4983975;28;20043;-60
2022/07/18 03:12:23;;;;;;;2.28;0.68;;;;;;;;;;4985166;28;20141;-60
2022/07/18 03:14:49;;;;;;;2.05;0.88;;;;;;;;;;4984177;28;20043;-60
2022/07/18 03:17:15;;;;;;;1.30;0.73;;;;;;;;;;4983514;28;20043;-62
2022/07/18 03:19:41;;;;;;;2.65;1.00;;;;;;;;;;4985170;28;20046;-60
2022/07/18 03:22:06;;;;;;;1.90;0.93;;;;;;;;;;4984471;28;20490;-59
2022/07/18 03:24:32;;;;;;;3.72;0.80;;;;;;;;;;4989868;28;20121;-59
2022/07/18 03:26:57;;;;;;;1.98;0.80;;;;;;;;;;4984184;28;20042;-59
2022/07/18 03:29:23;;;;;;;3.35;0.95;;;;;;;;;;4987732;28;20042;-60
2022/07/18 03:31:49;;;;;;;2.42;1.10;;;;;;;;;;4986618;28;20401;-59
2022/07/18 03:34:14;;;;;;;1.85;0.98;;;;;;;;;;4985491;28;20022;-59
2022/07/18 03:36:40;;;;;;;3.83;1.00;;;;;;;;;;4986230;28;20034;-60
2022/07/18 03:39:07;;;;;;;3.05;0.80;;;;;;;;;;4983848;28;20073;-59
2022/07/18 03:41:32;;;;;;;3.35;1.00;;;;;;;;;;4985520;28;20042;-59
2022/07/18 03:43:58;;;;;;;1.45;0.80;;;;;;;;;;4986745;28;20047;-60
2022/07/18 03:46:23;;;;;;;5.18;1.00;;;;;;;;;;4986332;28;21335;-60
2022/07/18 03:48:49;;;;;;;4.85;1.00;;;;;;;;;;4986619;28;20034;-59
2022/07/18 03:51:14;;;;;;;4.28;0.80;;;;;;;;;;4984847;28;20057;-59
2022/07/18 03:53:39;;;;;;;4.55;1.00;;;;;;;;;;4988142;28;20058;-60
2022/07/18 03:56:05;;;;;;;1.77;0.90;;;;;;;;;;4984353;28;20050;-59
2022/07/18 03:58:30;;;;;;;2.83;1.15;;;;;;;;;;4985436;28;20355;-60
2022/07/18 04:00:56;;;;;;;1.20;1.00;;;;;;;;;;4986890;28;20030;-60
2022/07/18 04:03:22;;;;;;;3.58;1.00;;;;;;;;;;4984470;28;20456;-60
2022/07/18 04:05:47;;;;;;;3.45;1.00;;;;;;;;;;4984853;28;20125;-62
2022/07/18 04:08:13;;;;;;;2.95;1.00;;;;;;;;;;4981382;28;20129;-60
2022/07/18 04:10:39;;;;;;;5.28;1.10;;;;;;;;;;4985881;28;20097;-60
2022/07/18 04:13:06;;;;;;;3.85;1.17;;;;;;;;;;4979803;28;20197;-59
2022/07/18 04:15:32;;;;;;;4.63;1.08;;;;;;;;;;4988273;28;20072;-59
2022/07/18 04:17:57;;;;;;;3.35;1.20;;;;;;;;;;4989266;28;20546;-60
2022/07/18 04:20:23;;;;;;;2.83;1.20;;;;;;;;;;4988319;28;20054;-59
2022/07/18 04:22:53;;;;;;;3.67;1.20;;;;;;;;;;4987959;28;20054;-61
2022/07/18 04:25:20;;;;;;;4.20;1.17;;;;;;;;;;4987253;28;20038;-61
2022/07/18 04:27:47;;;;;;;8.15;1.40;;;;;;;;;;4987352;28;20026;-59
2022/07/18 04:30:14;;;;;;;7.82;1.00;;;;;;;;;;4988150;28;20053;-59
2022/07/18 04:32:40;;;;;;;6.80;0.98;;;;;;;;;;4985285;28;20054;-60
2022/07/18 04:35:06;;;;;;;2.92;1.15;;;;;;;;;;4987840;28;20054;-59
2022/07/18 04:37:32;;;;;;;3.78;1.67;;;;;;;;;;4990101;28;20057;-59
2022/07/18 04:39:58;;;;;;;2.55;1.30;;;;;;;;;;4986393;28;20034;-60
2022/07/18 04:42:24;;;;;;;2.08;1.13;;;;;;;;;;4988963;28;20401;-60
2022/07/18 04:44:50;;;;;;;6.10;1.33;;;;;;;;;;4985153;28;20102;-60
2022/07/18 04:47:15;;;;;;;3.40;1.48;;;;;;;;;;4984729;28;20042;-60
2022/07/18 04:49:40;;;;;;;3.15;1.27;;;;;;;;;;4987942;28;20141;-61
2022/07/18 04:52:06;;;;;;;3.05;1.30;;;;;;;;;;4987201;28;20468;-61
2022/07/18 04:54:31;;;;;;;2.50;1.27;;;;;;;;;;4992579;28;20180;-61
2022/07/18 04:56:56;;;;;;;3.05;1.20;;;;;;;;;;4989809;28;20404;-61
2022/07/18 04:59:22;;;;;;;3.95;1.40;;;;;;;;;;4987554;28;20067;-59
2022/07/18 05:01:47;;;;;;;4.95;1.67;;;;;;;;;;4989513;28;20046;-60
2022/07/18 05:04:13;;;;;;;4.28;1.30;;;;;;;;;;4987849;28;20034;-61
2022/07/18 05:06:38;;;;;;;4.00;1.33;;;;;;;;;;4986987;28;20033;-59
2022/07/18 05:09:04;;;;;;;4.20;1.20;;;;;;;;;;4986689;28;20201;-59
2022/07/18 05:11:29;;;;;;;1.95;1.13;;;;;;;;;;4985585;28;20088;-61
2022/07/18 05:13:55;;;;;;;1.77;1.15;;;;;;;;;;4989261;28;20122;-61
2022/07/18 05:16:20;;;;;;;5.13;1.20;;;;;;;;;;4987119;28;20510;-61
2022/07/18 05:18:46;;;;;;;3.05;1.13;;;;;;;;;;4989800;28;20030;-59
2022/07/18 05:21:11;;;;;;;3.40;1.15;;;;;;;;;;4988772;28;20094;-59
2022/07/18 05:23:37;;;;;;;5.55;1.30;;;;;;;;;;4983317;28;20042;-60
2022/07/18 05:26:02;;;;;;;4.55;1.70;;;;;;;;;;4987243;28;20034;-62
2022/07/18 05:28:27;;;;;;;6.70;1.30;;;;;;;;;;4987724;28;20976;-60
2022/07/18 05:30:54;;;;;;;4.15;1.33;;;;;;;;;;4989118;28;20053;-60
2022/07/18 05:33:19;;;;;;;3.95;1.23;;;;;;;;;;4985991;28;20109;-60
2022/07/18 05:35:45;;;;;;;7.30;1.40;;;;;;;;;;4987912;28;20050;-61
2022/07/18 05:38:11;;;;;;;2.88;1.20;;;;;;;;;;4987355;28;20065;-60
2022/07/18 05:40:36;;;;;;;3.05;1.20;;;;;;;;;;4988538;28;20042;-61
2022/07/18 05:43:02;;;;;;;7.55;1.48;;;;;;;;;;4987786;28;20064;-60
2022/07/18 05:45:28;;;;;;;6.13;1.58;;;;;;;;;;4987534;28;20034;-60
2022/07/18 05:47:54;;;;;;;5.35;1.13;;;;;;;;;;4985923;28;20050;-60
2022/07/18 05:50:19;;;;;;;2.70;1.13;;;;;;;;;;4983682;28;20065;-60
2022/07/18 05:52:45;;;;;;;2.35;1.10;;;;;;;;;;4983288;28;20038;-62
2022/07/18 05:55:11;;;;;;;6.72;1.20;;;;;;;;;;4984441;28;20092;-61
2022/07/18 05:57:36;;;;;;;7.10;1.70;;;;;;;;;;4985376;28;20061;-62
2022/07/18 06:00:07;;;;;;;3.53;1.35;;;;;;;;;;4984271;28;20050;-60
2022/07/18 06:02:32;;;;;;;5.65;1.40;;;;;;;;;;4987061;28;20074;-60
2022/07/18 06:04:59;;;;;;;3.50;1.23;;;;;;;;;;4984681;28;20511;-60
2022/07/18 06:07:24;;;;;;;4.50;1.20;;;;;;;;;;4986017;28;20050;-61
2022/07/18 06:09:50;;;;;;;7.93;1.63;;;;;;;;;;4987428;28;20032;-61
2022/07/18 06:12:15;;;;;;;4.28;1.38;;;;;;;;;;4986777;28;20065;-61
2022/07/18 06:14:40;;;;;;;2.78;1.25;;;;;;;;;;4986673;28;20059;-61
2022/07/18 06:17:06;;;;;;;6.22;1.30;;;;;;;;;;4986836;28;20058;-60
2022/07/18 06:19:31;;;;;;;7.88;1.48;;;;;;;;;;4988881;28;20053;-61
2022/07/18 06:21:57;;;;;;;4.13;1.40;;;;;;;;;;4991149;28;20036;-61
2022/07/18 06:24:23;;;;;;;3.65;1.75;;;;;;;;;;4986848;28;20183;-61
2022/07/18 06:26:49;;;;;;;5.70;1.40;;;;;;;;;;4987711;28;20101;-61
2022/07/18 06:29:15;;;;;;;7.13;1.30;;;;;;;;;;4984677;28;20057;-61
2022/07/18 06:31:40;;;;;;;4.50;1.50;;;;;;;;;;4985282;28;20042;-61
2022/07/18 06:34:06;;;;;;;7.35;2.28;;;;;;;;;;4986356;28;20038;-61
2022/07/18 06:36:31;;;;;;;5.47;1.63;;;;;;;;;;4983686;28;20551;-61
2022/07/18 06:38:57;;;;;;;7.88;2.05;;;;;;;;;;4987729;28;20455;-61
2022/07/18 06:41:22;;;;;;;4.80;1.60;;;;;;;;;;4985795;28;20054;-62
2022/07/18 06:43:48;;;;;;;9.65;1.70;;;;;;;;;;4985775;28;20050;-61
2022/07/18 06:46:13;;;;;;;9.82;2.17;;;;;;;;;;4985736;28;20085;-61
2022/07/18 06:48:38;;;;;;;5.25;1.23;;;;;;;;;;4986413;28;20038;-61
2022/07/18 06:51:05;;;;;;;6.80;1.83;;;;;;;;;;4987030;28;20466;-62
2022/07/18 06:53:31;;;;;;;6.47;1.83;;;;;;;;;;4986381;28;20443;-63
2022/07/18 06:55:57;;;;;;;3.47;1.20;;;;;;;;;;4986584;28;20042;-62
2022/07/18 06:58:23;;;;;;;5.63;1.90;;;;;;;;;;4982633;28;20390;-62
2022/07/18 07:00:49;;;;;;;16.17;3.40;;;;;;;;;;4987354;28;20049;-61
2022/07/18 07:03:15;;;;;;;2.83;1.17;;;;;;;;;;4986889;28;20097;-61
2022/07/18 07:05:40;;;;;;;5.68;1.33;;;;;;;;;;4985510;28;20443;-62
2022/07/18 07:08:06;;;;;;;5.03;1.48;;;;;;;;;;4983159;28;20060;-61
2022/07/18 07:10:31;;;;;;;4.70;1.63;;;;;;;;;;4987433;28;20516;-61
2022/07/18 07:12:56;;;;;;;5.95;2.13;;;;;;;;;;4987779;28;20030;-61
2022/07/18 07:15:23;;;;;;;18.35;2.67;;;;;;;;;;4982413;28;20104;-61
2022/07/18 07:17:49;;;;;;;9.07;3.13;;;;;;;;;;4981317;28;20070;-63
2022/07/18 07:20:18;;;;;;;5.15;1.60;;;;;;;;;;4983043;28;20137;-61
2022/07/18 07:22:44;;;;;;;10.38;1.60;;;;;;;;;;4987131;28;20104;-62
2022/07/18 07:25:10;;;;;;;10.57;1.88;;;;;;;;;;4986613;28;20034;-61
2022/07/18 07:27:36;;;;;;;7.95;1.58;;;;;;;;;;4984569;28;20045;-62
2022/07/18 07:30:01;;;;;;;10.35;2.25;;;;;;;;;;4986357;28;20500;-61
2022/07/18 07:32:27;;;;;;;6.07;1.50;;;;;;;;;;4985684;28;20126;-61
2022/07/18 07:34:52;;;;;;;8.90;1.40;;;;;;;;;;4986556;28;20048;-62
2022/07/18 07:37:17;;;;;;;6.63;1.63;;;;;;;;;;4984650;28;20042;-61
2022/07/18 07:39:44;;;;;;;9.73;1.75;;;;;;;;;;4984061;28;20037;-61
2022/07/18 07:42:09;;;;;;;10.38;2.03;;;;;;;;;;4987246;28;20082;-61
2022/07/18 07:44:34;;;;;;;11.90;2.20;;;;;;;;;;4984213;28;20536;-61
2022/07/18 07:47:00;;;;;;;8.07;2.13;;;;;;;;;;4986015;28;20396;-61
2022/07/18 07:49:26;;;;;;;9.63;1.90;;;;;;;;;;4986954;28;20054;-62
2022/07/18 07:51:51;;;;;;;5.78;1.73;;;;;;;;;;4992582;28;20038;-61
2022/07/18 07:54:17;;;;;;;10.63;1.65;;;;;;;;;;4990438;28;20057;-61
2022/07/18 07:56:42;;;;;;;6.35;1.48;;;;;;;;;;4991324;28;20133;-61
2022/07/18 07:59:07;;;;;;;5.68;1.40;;;;;;;;;;4986711;28;20061;-61
2022/07/18 08:01:33;;;;;;;8.27;1.35;;;;;;;;;;4989212;28;20043;-61
2022/07/18 08:03:58;;;;;;;3.70;1.15;;;;;;;;;;4992431;28;20580;-61
2022/07/18 08:06:24;;;;;;;5.22;1.13;;;;;;;;;;4989186;28;20114;-61
2022/07/18 08:08:49;;;;;;;4.82;1.40;;;;;;;;;;4986845;28;20085;-62
2022/07/18 08:11:15;;;;;;;7.97;1.10;;;;;;;;;;4991809;28;20077;-62
2022/07/18 08:13:40;;;;;;;7.57;1.42;;;;;;;;;;4990848;28;20157;-61
2022/07/18 08:16:06;;;;;;;5.05;1.40;;;;;;;;;;4984958;28;20061;-61
2022/07/18 08:18:31;;;;;;;6.35;1.35;;;;;;;;;;4985940;28;20121;-61
2022/07/18 08:20:56;;;;;;;5.70;1.33;;;;;;;;;;4990758;28;20449;-61
2022/07/18 08:23:22;;;;;;;4.95;1.40;;;;;;;;;;4989203;28;20084;-61
2022/07/18 08:25:47;;;;;;;4.40;0.95;;;;;;;;;;4989475;28;20057;-61
2022/07/18 08:28:13;;;;;;;7.50;1.23;;;;;;;;;;4987150;28;20043;-61
2022/07/18 08:30:39;;;;;;;5.18;1.27;;;;;;;;;;4983473;28;20142;-62
2022/07/18 08:33:06;;;;;;;8.23;1.55;;;;;;;;;;4984964;28;20082;-61
2022/07/18 08:35:32;;;;;;;5.40;1.30;;;;;;;;;;4982277;28;20097;-62
2022/07/18 08:37:58;;;;;;;4.82;1.25;;;;;;;;;;4989154;28;20042;-62
2022/07/18 08:40:24;;;;;;;4.25;1.63;;;;;;;;;;4986293;28;20054;-61
2022/07/18 08:42:52;;;;;;;4.10;1.17;;;;;;;;;;4988229;28;20022;-62
2022/07/18 08:45:22;;;;;;;6.22;1.48;;;;;;;;;;4986838;28;20088;-61
2022/07/18 08:47:48;;;;;;;6.93;1.23;;;;;;;;;;4971334;28;20054;-62
2022/07/18 08:50:14;;;;;;;5.25;1.20;;;;;;;;;;4969488;28;20043;-61
2022/07/18 08:52:40;;;;;;;6.93;1.80;;;;;;;;;;4967896;28;20449;-62
2022/07/18 08:55:07;;;;;;;4.85;1.15;;;;;;;;;;4966229;28;20027;-62
2022/07/18 08:57:33;;;;;;;6.07;1.27;;;;;;;;;;4966783;28;20027;-62
2022/07/18 08:59:58;;;;;;;6.38;1.25;;;;;;;;;;4968489;28;20043;-61
2022/07/18 09:02:27;;;;;;;2.97;1.33;;;;;;;;;;4969859;28;21796;-63
2022/07/18 09:04:53;;;;;;;5.32;1.50;;;;;;;;;;4967823;28;20420;-61
2022/07/18 09:07:27;;;;;;;8.18;1.48;;;;;;;;;;4966236;28;20052;-61
2022/07/18 09:10:02;;;;;;;10.43;2.10;;;;;;;;;;4965943;28;20046;-61
2022/07/18 09:12:32;;;;;;;4.20;1.40;;;;;;;;;;4985117;28;20067;-61
2022/07/18 09:15:08;;;;;;;5.20;1.30;;;;;;;;;;4969198;28;20042;-61
2022/07/18 09:17:35;;;;;;;6.53;1.48;;;;;;;;;;4979180;28;20050;-61
2022/07/18 09:20:08;;;;;;;5.93;1.42;;;;;;;;;;4979787;28;20046;-63
2022/07/18 09:22:39;;;;;;;4.47;1.30;;;;;;;;;;4989967;28;20401;-63
2022/07/18 09:25:11;;;;;;;6.43;1.27;;;;;;;;;;4983154;28;20038;-62
2022/07/18 09:27:49;;;;;;;4.50;1.55;;;;;;;;;;4986582;28;20034;-63
2022/07/18 09:30:16;;;;;;;5.43;1.30;;;;;;;;;;4989646;28;20142;-62
2022/07/18 09:32:51;;;;;;;9.38;1.20;;;;;;;;;;4983145;28;20065;-66
2022/07/18 09:35:20;;;;;;;3.40;1.35;;;;;;;;;;4982172;28;20050;-64
2022/07/18 09:38:08;;;;;;;3.97;1.42;;;;;;;;;;4987064;28;20046;-63
2022/07/18 09:40:45;;;;;;;6.63;1.85;;;;;;;;;;4985821;28;20054;-63
2022/07/18 09:43:12;;;;;;;3.05;1.30;;;;;;;;;;4988178;28;20045;-62
2022/07/18 09:45:39;;;;;;;4.07;1.30;;;;;;;;;;4986534;28;20416;-61
2022/07/18 09:48:07;;;;;;;4.22;1.70;;;;;;;;;;4989144;28;20627;-62
2022/07/18 09:50:41;;;;;;;12.05;1.80;;;;;;;;;;4971677;28;20054;-61
2022/07/18 09:53:16;;;;;;;3.60;1.30;;;;;;;;;;4967289;28;20448;-62
2022/07/18 09:55:44;;;;;;;4.13;1.40;;;;;;;;;;4966329;28;20078;-61
2022/07/18 09:58:10;;;;;;;3.08;1.10;;;;;;;;;;4965329;28;20122;-63
2022/07/18 10:00:37;;;;;;;4.85;1.27;;;;;;;;;;4985624;28;20034;-61
2022/07/18 10:03:05;;;;;;;2.95;1.17;;;;;;;;;;4985055;28;20093;-61
2022/07/18 10:05:33;;;;;;;4.15;1.25;;;;;;;;;;4989493;28;20045;-61
2022/07/18 10:08:05;;;;;;;4.82;1.10;;;;;;;;;;4976920;28;20492;-61
2022/07/18 10:10:31;;;;;;;2.70;1.13;;;;;;;;;;4982947;28;20399;-61
2022/07/18 10:13:01;;;;;;;3.00;1.10;;;;;;;;;;4985209;28;20022;-61
2022/07/18 10:15:35;;;;;;;2.03;0.98;;;;;;;;;;4984185;28;20096;-62
2022/07/18 10:18:02;;;;;;;2.90;1.20;;;;;;;;;;4989728;28;20042;-62
2022/07/18 10:20:33;;;;;;;5.97;1.08;;;;;;;;;;4983962;28;20176;-63
2022/07/18 10:23:17;;;;;;;2.30;0.98;;;;;;;;;;4987186;28;20074;-62
2022/07/18 10:25:43;;;;;;;3.70;1.05;;;;;;;;;;4983499;28;20058;-62
2022/07/18 10:28:13;;;;;;;4.93;1.33;;;;;;;;;;4986186;28;20125;-63
2022/07/18 10:30:46;;;;;;;2.85;0.90;;;;;;;;;;4982330;28;20121;-62
2022/07/18 10:33:38;;;;;;;3.65;1.10;;;;;;;;;;4984044;28;20054;-61
2022/07/18 10:36:06;;;;;;;3.50;1.20;;;;;;;;;;4987156;28;20049;-60
2022/07/18 10:38:32;;;;;;;4.93;1.20;;;;;;;;;;4984650;28;20045;-62
2022/07/18 10:41:16;;;;;;;5.57;1.08;;;;;;;;;;4982839;28;20046;-62
2022/07/18 10:43:44;;;;;;;2.10;0.95;;;;;;;;;;4983063;28;20090;-62
2022/07/18 10:46:10;;;;;;;2.72;1.30;;;;;;;;;;4988956;28;20380;-62
2022/07/18 10:48:40;;;;;;;4.05;1.10;;;;;;;;;;4984713;28;20038;-62
2022/07/18 10:51:13;;;;;;;2.92;1.10;;;;;;;;;;4986429;28;20043;-61
2022/07/18 10:53:54;;;;;;;2.13;0.98;;;;;;;;;;4988152;28;20053;-62
2022/07/18 10:56:28;;;;;;;3.33;1.20;;;;;;;;;;4983256;28;20065;-62
2022/07/18 10:59:14;;;;;;;3.65;1.33;;;;;;;;;;4985036;28;20049;-62
2022/07/18 11:01:48;;;;;;;6.88;1.00;;;;;;;;;;4979130;28;20049;-63
2022/07/18 11:04:32;;;;;;;5.18;1.10;;;;;;;;;;4967398;28;20037;-63
2022/07/18 11:07:09;;;;;;;2.00;0.95;;;;;;;;;;4969738;28;20035;-62
2022/07/18 11:09:47;;;;;;;6.45;1.38;;;;;;;;;;4965695;28;20105;-62
2022/07/18 11:12:20;;;;;;;2.22;1.13;;;;;;;;;;4963860;28;20039;-63
2022/07/18 11:15:00;;;;;;;3.05;1.20;;;;;;;;;;4966415;28;20047;-61
2022/07/18 11:17:51;;;;;;;2.22;1.10;;;;;;;;;;4964509;28;20058;-63
2022/07/18 11:20:37;;;;;;;4.00;1.35;;;;;;;;;;4963798;28;20485;-62
2022/07/18 11:23:12;;;;;;;3.10;1.08;;;;;;;;;;4968239;28;20106;-63
2022/07/18 11:25:38;;;;;;;3.08;1.33;;;;;;;;;;4970063;28;20047;-62
2022/07/18 11:28:08;;;;;;;4.28;1.30;;;;;;;;;;4974667;28;20035;-62
2022/07/18 11:30:33;;;;;;;2.83;1.35;;;;;;;;;;4967387;28;20093;-66
2022/07/18 11:32:59;;;;;;;3.92;1.15;;;;;;;;;;4988326;28;20484;-63
2022/07/18 11:35:25;;;;;;;4.53;1.30;;;;;;;;;;4986929;28;20050;-61
2022/07/18 11:37:52;;;;;;;1.55;1.02;;;;;;;;;;4990003;28;20389;-62
2022/07/18 11:40:18;;;;;;;4.22;1.15;;;;;;;;;;4987711;28;20046;-63
2022/07/18 11:42:43;;;;;;;3.05;1.10;;;;;;;;;;4990455;28;20022;-62
2022/07/18 11:45:12;;;;;;;1.65;1.10;;;;;;;;;;4988673;28;20514;-62
2022/07/18 11:47:52;;;;;;;2.75;1.08;;;;;;;;;;4986907;28;20184;-62
2022/07/18 11:50:26;;;;;;;5.30;0.93;;;;;;;;;;4990251;28;20089;-61
2022/07/18 11:52:56;;;;;;;2.20;1.10;;;;;;;;;;4988487;28;20823;-61
2022/07/18 11:55:37;;;;;;;3.10;1.00;;;;;;;;;;4989280;28;20061;-61
2022/07/18 11:58:07;;;;;;;8.17;1.10;;;;;;;;;;4989758;28;20472;-61
2022/07/18 12:00:33;;;;;;;3.00;1.40;;;;;;;;;;4986339;28;20834;-62
2022/07/18 12:02:58;;;;;;;6.10;1.15;;;;;;;;;;4988004;28;20047;-61
2022/07/18 12:05:49;;;;;;;3.03;1.08;;;;;;;;;;4989194;28;20054;-61
2022/07/18 12:08:38;;;;;;;2.17;1.17;;;;;;;;;;4990561;28;20046;-62
2022/07/18 12:11:26;;;;;;;2.45;1.08;;;;;;;;;;4988750;28;20129;-63
2022/07/18 12:14:02;;;;;;;3.63;0.88;;;;;;;;;;4987191;28;20075;-63
2022/07/18 12:16:34;;;;;;;2.72;1.05;;;;;;;;;;4987967;28;20062;-62
2022/07/18 12:19:10;;;;;;;;;;;;;;;;;;4988905;28;20041;-63
2022/07/18 12:21:43;;;;;;;1.35;0.88;;;;;;;;;;4982766;28;19929;-62
2022/07/18 12:24:25;;;;;;;6.10;1.20;;;;;;;;;;4984649;28;20055;-62
2022/07/18 12:27:23;;;;;;;4.13;1.00;;;;;;;;;;4988949;28;20976;-61
2022/07/18 12:30:11;;;;;;;0.70;0.70;;;;;;;;;;4987808;28;20054;-62
2022/07/18 12:32:42;;;;;;;2.65;1.10;;;;;;;;;;4988688;28;20050;-62
2022/07/18 12:35:31;;;;;;;2.95;0.88;;;;;;;;;;4987851;28;20097;-63
2022/07/18 12:38:02;;;;;;;2.63;1.13;;;;;;;;;;4990844;28;20046;-62
2022/07/18 12:40:46;;;;;;;4.50;1.10;;;;;;;;;;4987326;28;20141;-63
2022/07/18 12:43:13;;;;;;;3.00;1.00;;;;;;;;;;4989795;28;20427;-61
2022/07/18 12:45:39;;;;;;;4.68;1.33;;;;;;;;;;4987906;28;20089;-61
2022/07/18 12:48:07;;;;;;;2.97;1.10;;;;;;;;;;4990246;28;20054;-61
2022/07/18 12:50:32;;;;;;;5.20;1.30;;;;;;;;;;4994514;28;20418;-61
2022/07/18 12:52:58;;;;;;;2.28;1.13;;;;;;;;;;4988668;28;20057;-60
2022/07/18 12:55:27;;;;;;;2.60;1.20;;;;;;;;;;4987688;28;20083;-60
2022/07/18 12:57:52;;;;;;;4.20;1.20;;;;;;;;;;4990443;28;20092;-60
2022/07/18 13:00:18;;;;;;;2.45;1.10;;;;;;;;;;5006105;28;20488;-61
2022/07/18 13:02:44;;;;;;;2.17;1.20;;;;;;;;;;4991065;28;20046;-61
2022/07/18 13:05:10;;;;;;;3.90;1.17;;;;;;;;;;4988698;28;20076;-61
2022/07/18 13:07:35;;;;;;;3.30;1.17;;;;;;;;;;4991413;28;20046;-61
2022/07/18 13:10:01;;;;;;;4.05;1.10;;;;;;;;;;4986865;28;20062;-61
2022/07/18 13:12:27;;;;;;;2.40;1.23;;;;;;;;;;4985459;28;20070;-61
2022/07/18 13:14:52;;;;;;;3.17;1.15;;;;;;;;;;4987306;28;20051;-61
2022/07/18 13:17:18;;;;;;;3.08;0.88;;;;;;;;;;4986379;28;20049;-62
2022/07/18 13:19:44;;;;;;;2.20;1.02;;;;;;;;;;4985053;28;20047;-61
2022/07/18 13:22:10;;;;;;;8.32;1.23;;;;;;;;;;4986235;28;20038;-61
2022/07/18 13:24:36;;;;;;;2.67;1.00;;;;;;;;;;4986322;28;20686;-60
2022/07/18 13:27:03;;;;;;;4.32;1.17;;;;;;;;;;4987792;28;20125;-62
2022/07/18 13:29:28;;;;;;;3.60;0.90;;;;;;;;;;4984305;28;20054;-60
2022/07/18 13:31:54;;;;;;;3.72;1.13;;;;;;;;;;4984230;28;20493;-62
2022/07/18 13:34:20;;;;;;;3.00;1.25;;;;;;;;;;4980943;28;20042;-61
2022/07/18 13:36:46;;;;;;;1.70;1.02;;;;;;;;;;4982481;28;20031;-61
2022/07/18 13:39:12;;;;;;;4.70;1.10;;;;;;;;;;4981288;28;20066;-61
2022/07/18 13:41:37;;;;;;;4.97;1.20;;;;;;;;;;4984845;28;20501;-62
2022/07/18 13:44:03;;;;;;;5.35;1.08;;;;;;;;;;4982381;28;20409;-65
2022/07/18 13:46:28;;;;;;;3.40;1.20;;;;;;;;;;4986679;28;20051;-60
2022/07/18 13:48:53;;;;;;;3.28;1.00;;;;;;;;;;4988155;28;20034;-60
2022/07/18 13:51:19;;;;;;;1.75;0.98;;;;;;;;;;4986566;28;20042;-60
2022/07/18 13:53:44;;;;;;;2.70;1.20;;;;;;;;;;4981890;28;20137;-62
2022/07/18 13:56:10;;;;;;;7.28;1.63;;;;;;;;;;4986621;28;20504;-61
2022/07/18 13:58:35;;;;;;;6.60;1.23;;;;;;;;;;4987455;28;20082;-63
2022/07/18 14:01:01;;;;;;;2.00;1.02;;;;;;;;;;4985241;28;20039;-61
2022/07/18 14:03:26;;;;;;;4.05;1.10;;;;;;;;;;4984407;28;20128;-62
2022/07/18 14:05:51;;;;;;;4.25;1.00;;;;;;;;;;4985155;28;20129;-62
2022/07/18 14:08:17;;;;;;;1.10;1.00;;;;;;;;;;4985079;28;20046;-60
2022/07/18 14:10:42;;;;;;;2.83;1.10;;;;;;;;;;4984302;28;20061;-62
2022/07/18 14:13:08;;;;;;;4.25;1.10;;;;;;;;;;4984658;28;20404;-64
2022/07/18 14:15:33;;;;;;;2.42;1.10;;;;;;;;;;4985738;28;20334;-62
2022/07/18 14:17:58;;;;;;;3.22;1.10;;;;;;;;;;4985502;28;20066;-61
2022/07/18 14:20:24;;;;;;;2.97;1.15;;;;;;;;;;4983752;28;20057;-61
2022/07/18 14:22:49;;;;;;;3.17;1.02;;;;;;;;;;4983866;28;20058;-62
2022/07/18 14:25:16;;;;;;;3.30;1.10;;;;;;;;;;4985120;28;20046;-62
2022/07/18 14:27:43;;;;;;;1.90;1.02;;;;;;;;;;4987221;28;20030;-63
2022/07/18 14:30:12;;;;;;;2.78;1.23;;;;;;;;;;4983724;28;20148;-62
2022/07/18 14:32:38;;;;;;;3.90;1.10;;;;;;;;;;4981222;28;20319;-61
2022/07/18 14:35:05;;;;;;;3.63;1.00;;;;;;;;;;4982055;28;20476;-62
2022/07/18 14:37:30;;;;;;;4.30;1.17;;;;;;;;;;4983221;28;20089;-62
2022/07/18 14:39:56;;;;;;;4.30;1.10;;;;;;;;;;4983705;28;20034;-62
2022/07/18 14:42:21;;;;;;;2.78;1.40;;;;;;;;;;4984723;28;20145;-61
2022/07/18 14:44:47;;;;;;;3.47;1.00;;;;;;;;;;4984125;28;20612;-61
2022/07/18 14:47:12;;;;;;;1.85;0.90;;;;;;;;;;4985420;28;20046;-62
2022/07/18 14:49:38;;;;;;;2.55;1.13;;;;;;;;;;4986057;28;20176;-62